Putnam Station, New York
Current Conditions -  °F | °C
As of 11:15 AM on Thursday 23 Oct 2014 (Local Time) from K6B0 Reporting Station
Light Rain Light Rain  
Wind Chill:   Ceiling: 1000
Heat Index:   Visibility: 10mi
Dew Point:   Wind: 15mph
Humidity: 97%   Direction: 360°N
Pressure: 29.9"   Gusts: 25mph
Location:  43.74°N, 73.4°W
Report Text: K6B0 231515Z AUTO 36013G22KT 10SM -RA OVC010 07/06 A2990 RMK AO2 T00650061
Loading
Personal Weather Stations






























Interactive Weather Map
Tropical Storm Tracking
New forecast layout! Learn more

10-Day Weather Forecast

Advertisements
Track Severe Weather on mobile